createdAt,value
2019-01-12T00:01:36.266Z,950.1
2019-01-12T00:04:42.375Z,950.1
2019-01-12T00:07:48.490Z,950.1
2019-01-12T00:10:54.398Z,950.1
2019-01-12T00:14:00.409Z,950.3
2019-01-12T00:17:06.420Z,950.3
2019-01-12T00:20:12.377Z,950.3
2019-01-12T00:23:18.386Z,950.2
2019-01-12T00:26:24.402Z,950.2
2019-01-12T00:29:30.514Z,950.2
2019-01-12T00:32:36.524Z,950.2
2019-01-12T00:35:42.472Z,950.1
2019-01-12T00:38:48.611Z,950.1
2019-01-12T00:41:54.538Z,950.1
2019-01-12T00:45:00.782Z,950
2019-01-12T00:48:06.836Z,950
2019-01-12T00:51:12.792Z,949.9
2019-01-12T00:54:18.960Z,950
2019-01-12T00:57:25.041Z,950
2019-01-12T01:00:31.131Z,950
2019-01-12T01:03:37.245Z,949.9
2019-01-12T01:06:43.210Z,949.8
2019-01-12T01:09:49.112Z,949.7
2019-01-12T01:12:55.128Z,949.8
2019-01-12T01:16:01.191Z,949.9
2019-01-12T01:19:10.012Z,949.9
2019-01-12T01:22:15.885Z,949.8
2019-01-12T01:25:21.933Z,949.8
2019-01-12T01:28:27.920Z,949.9
2019-01-12T01:31:33.983Z,949.9
2019-01-12T01:34:39.859Z,949.9
2019-01-12T01:37:46.008Z,949.9
2019-01-12T01:40:52.039Z,949.8
2019-01-12T01:43:58.098Z,949.8
2019-01-12T01:47:04.189Z,949.8
2019-01-12T01:50:10.229Z,949.7
2019-01-12T01:53:16.313Z,949.7
2019-01-12T01:56:22.449Z,949.7
2019-01-12T01:59:28.459Z,949.7
2019-01-12T02:02:34.573Z,949.7
2019-01-12T02:05:40.561Z,949.6
2019-01-12T02:08:46.531Z,949.7
2019-01-12T02:11:52.553Z,949.6
2019-01-12T02:14:58.615Z,949.6
2019-01-12T02:18:04.730Z,949.6
2019-01-12T02:21:10.637Z,949.4
2019-01-12T02:24:16.802Z,949.5
2019-01-12T02:27:22.863Z,949.4
2019-01-12T02:30:28.746Z,949.4
2019-01-12T02:33:37.854Z,949.4
2019-01-12T02:36:43.863Z,949.4
2019-01-12T02:39:50.113Z,949.3
2019-01-12T02:42:55.951Z,949.4
2019-01-12T02:46:02.253Z,949.4
2019-01-12T02:49:08.165Z,949.4
2019-01-12T02:52:14.124Z,949.3
2019-01-12T02:55:19.994Z,949.3
2019-01-12T02:58:26.044Z,949.2
2019-01-12T03:01:32.007Z,949.2
2019-01-12T03:04:38.016Z,949.2
2019-01-12T03:07:44.127Z,948.9
2019-01-12T03:10:50.010Z,949
2019-01-12T03:13:55.995Z,949
2019-01-12T03:17:02.166Z,949
2019-01-12T03:20:08.322Z,948.9
2019-01-12T03:23:15.189Z,948.8
2019-01-12T03:26:21.374Z,948.9
2019-01-12T03:29:27.435Z,948.8
2019-01-12T03:32:33.603Z,948.7
2019-01-12T03:35:39.763Z,948.7
2019-01-12T03:38:45.825Z,948.7
2019-01-12T03:41:51.988Z,948.7
2019-01-12T03:44:57.898Z,948.8
2019-01-12T03:48:03.975Z,948.8
2019-01-12T03:51:09.880Z,948.8
2019-01-12T03:54:15.999Z,948.7
2019-01-12T03:57:21.862Z,948.7
2019-01-12T04:00:27.950Z,948.7
2019-01-12T04:03:34.033Z,948.7
2019-01-12T04:06:40.181Z,948.8
2019-01-12T04:09:46.291Z,948.8
2019-01-12T04:12:52.253Z,948.7
2019-01-12T04:15:58.321Z,948.8
2019-01-12T04:19:04.201Z,948.8
2019-01-12T04:22:10.332Z,948.8
2019-01-12T04:25:16.394Z,948.8
2019-01-12T04:28:22.457Z,948.7
2019-01-12T04:31:28.539Z,948.7
2019-01-12T04:34:34.571Z,948.7
2019-01-12T04:37:40.499Z,948.7
2019-01-12T04:40:46.515Z,948.6
2019-01-12T04:43:55.112Z,948.6
2019-01-12T04:47:01.122Z,948.7
2019-01-12T04:50:07.183Z,948.6
2019-01-12T04:53:13.191Z,948.7
2019-01-12T04:56:21.933Z,948.6
2019-01-12T04:59:27.994Z,948.6
2019-01-12T05:02:33.941Z,948.7
2019-01-12T05:05:39.821Z,948.7
2019-01-12T05:08:45.755Z,948.7
2019-01-12T05:11:51.826Z,948.7
2019-01-12T05:14:57.783Z,948.8
2019-01-12T05:18:03.744Z,948.8
2019-01-12T05:21:09.628Z,948.8
2019-01-12T05:24:15.583Z,948.8
2019-01-12T05:27:21.523Z,948.8
2019-01-12T05:30:27.601Z,948.8
2019-01-12T05:33:33.537Z,948.8
2019-01-12T05:36:39.525Z,948.8
2019-01-12T05:39:48.249Z,948.8
2019-01-12T05:42:54.182Z,948.9
2019-01-12T05:46:00.050Z,948.9
2019-01-12T05:49:06.031Z,948.9
2019-01-12T05:52:11.961Z,948.9
2019-01-12T05:55:17.913Z,948.9
2019-01-12T05:58:24.137Z,948.9
2019-01-12T06:01:30.154Z,948.8
2019-01-12T06:04:36.025Z,948.8
2019-01-12T06:07:41.921Z,948.8
2019-01-12T06:10:47.926Z,948.8
2019-01-12T06:13:53.982Z,948.9
2019-01-12T06:16:59.944Z,948.9
2019-01-12T06:20:05.901Z,948.9
2019-01-12T06:23:11.783Z,948.9
2019-01-12T06:26:17.718Z,949
2019-01-12T06:29:23.677Z,949
2019-01-12T06:32:29.559Z,949
2019-01-12T06:35:35.598Z,948.9
2019-01-12T06:38:41.505Z,948.9
2019-01-12T06:41:47.519Z,949
2019-01-12T06:44:53.480Z,949
2019-01-12T06:48:00.771Z,948.9
2019-01-12T06:51:06.859Z,949
2019-01-12T06:54:13.203Z,949
2019-01-12T06:57:19.104Z,949
2019-01-12T07:00:25.164Z,949
2019-01-12T07:03:31.173Z,949.1
2019-01-12T07:06:37.133Z,949
2019-01-12T07:09:43.209Z,949
2019-01-12T07:12:49.133Z,949.1
2019-01-12T07:15:55.218Z,949
2019-01-12T07:19:01.087Z,949
2019-01-12T07:22:07.236Z,949
2019-01-12T07:25:13.114Z,948.9
2019-01-12T07:28:19.059Z,949
2019-01-12T07:31:24.923Z,949
2019-01-12T07:34:30.872Z,949
2019-01-12T07:37:36.939Z,949
2019-01-12T07:40:42.803Z,948.9
2019-01-12T07:43:48.868Z,949
2019-01-12T07:46:54.744Z,949
2019-01-12T07:50:00.829Z,949.1
2019-01-12T07:53:06.971Z,949
2019-01-12T07:56:12.825Z,949
2019-01-12T07:59:18.752Z,949
2019-01-12T08:02:24.765Z,949
2019-01-12T08:05:30.774Z,948.9
2019-01-12T08:08:36.659Z,949
2019-01-12T08:11:42.588Z,949
2019-01-12T08:14:48.652Z,949.1
2019-01-12T08:17:54.612Z,949.1
2019-01-12T08:21:00.600Z,949.2
2019-01-12T08:24:06.633Z,949.2
2019-01-12T08:27:12.518Z,949.2
2019-01-12T08:30:18.563Z,949.2
2019-01-12T08:33:24.546Z,949.3
2019-01-12T08:36:30.578Z,949.3
2019-01-12T08:39:36.477Z,949.3
2019-01-12T08:42:42.395Z,949.3
2019-01-12T08:45:48.455Z,949.3
2019-01-12T08:48:54.337Z,949.2
2019-01-12T08:52:00.376Z,949.2
2019-01-12T08:55:06.257Z,949.2
2019-01-12T08:58:12.186Z,949.1
2019-01-12T09:01:20.602Z,949.1
2019-01-12T09:04:26.564Z,949
2019-01-12T09:07:32.524Z,948.9
2019-01-12T09:10:38.395Z,948.8
2019-01-12T09:13:46.900Z,948.8
2019-01-12T09:16:55.598Z,948.8
2019-01-12T09:20:01.582Z,948.5
2019-01-12T09:23:07.545Z,948.6
2019-01-12T09:26:13.423Z,948.5
2019-01-12T09:29:19.363Z,948.4
2019-01-12T09:32:25.319Z,948.3
2019-01-12T09:35:31.275Z,948.3
2019-01-12T09:38:37.166Z,948.3
2019-01-12T09:41:43.094Z,948.2
2019-01-12T09:44:48.967Z,948.3
2019-01-12T09:47:54.911Z,948.2
2019-01-12T09:51:00.782Z,948.2
2019-01-12T09:54:06.731Z,948.3
2019-01-12T09:57:12.692Z,948.4
2019-01-12T10:00:18.697Z,948.2
2019-01-12T10:03:24.660Z,948.1
2019-01-12T10:06:30.725Z,948.1
2019-01-12T10:09:39.149Z,948.1
2019-01-12T10:12:45.198Z,948.1
2019-01-12T10:15:51.107Z,948.1
2019-01-12T10:18:57.068Z,948
2019-01-12T10:22:03.030Z,948
2019-01-12T10:25:08.896Z,948
2019-01-12T10:28:14.848Z,947.9
2019-01-12T10:31:20.828Z,947.9
2019-01-12T10:34:26.768Z,947.9
2019-01-12T10:37:32.666Z,947.9
2019-01-12T10:40:38.683Z,947.7
2019-01-12T10:43:44.644Z,947.7
2019-01-12T10:46:50.649Z,947.7
2019-01-12T10:49:56.663Z,947.7
2019-01-12T10:53:04.083Z,947.7
2019-01-12T10:56:10.015Z,947.7
2019-01-12T10:59:15.881Z,947.6
2019-01-12T11:02:21.856Z,947.6
2019-01-12T11:05:27.821Z,947.6
2019-01-12T11:08:33.855Z,947.6
2019-01-12T11:11:39.816Z,947.7
2019-01-12T11:14:48.550Z,947.7
2019-01-12T11:17:54.439Z,947.5
2019-01-12T11:21:00.450Z,947.5
2019-01-12T11:24:06.410Z,947.5
2019-01-12T11:27:13.599Z,947.5
2019-01-12T11:30:19.568Z,947.4
2019-01-12T11:33:25.467Z,947.4
2019-01-12T11:36:31.480Z,947.4
2019-01-12T11:39:37.437Z,947.3
2019-01-12T11:42:44.247Z,947.3
2019-01-12T11:45:51.950Z,947.2
2019-01-12T11:48:57.887Z,947.1
2019-01-12T11:52:03.940Z,947.1
2019-01-12T11:55:09.924Z,947.1
2019-01-12T11:58:15.986Z,947.1
2019-01-12T12:01:21.911Z,947.1
2019-01-12T12:04:30.237Z,947
2019-01-12T12:07:37.372Z,947
2019-01-12T12:10:43.281Z,947
2019-01-12T12:13:49.160Z,946.9
2019-01-12T12:16:55.094Z,946.9
2019-01-12T12:20:01.055Z,946.9
2019-01-12T12:23:06.936Z,946.8
2019-01-12T12:26:13.176Z,946.8
2019-01-12T12:29:19.061Z,946.9
2019-01-12T12:32:27.495Z,946.9
2019-01-12T12:35:39.151Z,946.9
2019-01-12T12:38:45.035Z,946.8
2019-01-12T12:41:50.968Z,946.9
2019-01-12T12:44:56.927Z,946.8
2019-01-12T12:48:02.867Z,946.7
2019-01-12T12:51:09.093Z,946.8
2019-01-12T12:54:15.019Z,946.8
2019-01-12T12:57:20.964Z,946.9
2019-01-12T13:00:26.837Z,946.8
2019-01-12T13:03:32.780Z,946.8
2019-01-12T13:06:38.848Z,946.8
2019-01-12T13:09:44.808Z,946.8
2019-01-12T13:12:50.779Z,946.8
2019-01-12T13:15:56.654Z,946.7
2019-01-12T13:19:02.614Z,946.6
2019-01-12T13:22:08.546Z,946.7
2019-01-12T13:25:14.501Z,946.7
2019-01-12T13:28:20.401Z,946.7
2019-01-12T13:31:27.851Z,946.7
2019-01-12T13:34:33.912Z,946.7
2019-01-12T13:37:39.798Z,946.8
2019-01-12T13:40:45.835Z,946.7
2019-01-12T13:43:54.462Z,946.8
2019-01-12T13:47:00.415Z,946.7
2019-01-12T13:50:06.376Z,946.8
2019-01-12T13:53:12.334Z,946.7
2019-01-12T13:56:18.293Z,946.8
2019-01-12T13:59:24.200Z,946.8
2019-01-12T14:02:30.213Z,946.8
2019-01-12T14:05:36.171Z,946.8
2019-01-12T14:08:42.232Z,946.8
2019-01-12T14:11:48.112Z,946.8
2019-01-12T14:14:54.051Z,946.8
2019-01-12T14:18:00.040Z,946.9
2019-01-12T14:21:06.075Z,946.9
2019-01-12T14:24:12.030Z,946.9
2019-01-12T14:27:17.964Z,946.8
2019-01-12T14:30:23.956Z,946.9
2019-01-12T14:33:29.833Z,946.9
2019-01-12T14:36:35.798Z,946.9
2019-01-12T14:39:41.829Z,946.9
2019-01-12T14:42:47.791Z,946.9
2019-01-12T14:45:53.747Z,946.9
2019-01-12T14:48:59.633Z,946.8
2019-01-12T14:52:05.667Z,946.9
2019-01-12T14:55:14.286Z,946.8
2019-01-12T14:58:20.297Z,946.9
2019-01-12T15:01:26.308Z,946.8
2019-01-12T15:04:32.427Z,946.8
2019-01-12T15:07:38.541Z,946.9
2019-01-12T15:10:44.598Z,946.9
2019-01-12T15:13:50.565Z,946.9
2019-01-12T15:16:56.622Z,946.9
2019-01-12T15:20:02.594Z,947
2019-01-12T15:23:08.542Z,946.9
2019-01-12T15:26:14.443Z,946.9
2019-01-12T15:29:20.462Z,947
2019-01-12T15:32:29.333Z,947.1
2019-01-12T15:35:35.329Z,947.1
2019-01-12T15:38:41.316Z,947
2019-01-12T15:41:47.186Z,946.9
2019-01-12T15:44:53.267Z,947
2019-01-12T15:47:59.295Z,947
2019-01-12T15:51:05.243Z,947
2019-01-12T15:54:11.124Z,947
2019-01-12T15:57:17.101Z,947.1
2019-01-12T16:00:23.026Z,947
2019-01-12T16:03:29.129Z,947.2
2019-01-12T16:06:35.040Z,947.2
2019-01-12T16:09:40.929Z,947.3
2019-01-12T16:12:47.094Z,947.4
2019-01-12T16:15:53.021Z,947.3
2019-01-12T16:18:58.983Z,947.3
2019-01-12T16:22:05.157Z,947.3
2019-01-12T16:25:11.104Z,947.4
2019-01-12T16:28:24.335Z,947.4
2019-01-12T16:31:30.298Z,947.4
2019-01-12T16:34:36.196Z,947.4
2019-01-12T16:37:42.212Z,947.4
2019-01-12T16:40:48.207Z,947.4
2019-01-12T16:43:54.047Z,947.4
2019-01-12T16:47:00.095Z,947.4
2019-01-12T16:50:06.028Z,947.4
2019-01-12T16:53:12.117Z,947.4
2019-01-12T16:56:18.076Z,947.4
2019-01-12T16:59:24.033Z,947.4
2019-01-12T17:02:30.005Z,947.3
2019-01-12T17:05:35.961Z,947.4
2019-01-12T17:08:41.952Z,947.4
2019-01-12T17:11:47.870Z,947.4
2019-01-12T17:14:53.832Z,947.4
2019-01-12T17:17:59.704Z,947.3
2019-01-12T17:21:05.752Z,947.4
2019-01-12T17:24:11.626Z,947.4
2019-01-12T17:27:17.605Z,947.4
2019-01-12T17:30:23.663Z,947.5
2019-01-12T17:33:29.822Z,947.4
2019-01-12T17:36:35.692Z,947.5
2019-01-12T17:39:41.624Z,947.5
2019-01-12T17:42:47.567Z,947.5
2019-01-12T17:45:53.439Z,947.5
2019-01-12T17:48:59.417Z,947.5
2019-01-12T17:52:05.352Z,947.5
2019-01-12T17:55:13.007Z,947.5
2019-01-12T17:58:19.002Z,947.6
2019-01-12T18:01:24.993Z,947.6
2019-01-12T18:04:30.985Z,947.6
2019-01-12T18:07:38.134Z,947.6
2019-01-12T18:10:44.172Z,947.5
2019-01-12T18:13:50.137Z,947.4
2019-01-12T18:16:56.100Z,947.5
2019-01-12T18:20:02.050Z,947.5
2019-01-12T18:23:08.013Z,947.3
2019-01-12T18:26:14.007Z,947.4
2019-01-12T18:29:19.931Z,947.3
2019-01-12T18:32:25.902Z,947.3
2019-01-12T18:35:31.854Z,947.3
2019-01-12T18:38:37.810Z,947.4
2019-01-12T18:41:43.766Z,947.4
2019-01-12T18:44:49.830Z,947.4
2019-01-12T18:47:55.849Z,947.3
2019-01-12T18:51:01.755Z,947.3
2019-01-12T18:54:07.650Z,947.3
2019-01-12T18:57:15.720Z,947.3
2019-01-12T19:00:21.607Z,947.3
2019-01-12T19:03:27.642Z,947.3
2019-01-12T19:06:33.593Z,947.3
2019-01-12T19:09:39.713Z,947.3
2019-01-12T19:12:46.632Z,947.4
2019-01-12T19:15:52.597Z,947.4
2019-01-12T19:18:58.568Z,947.3
2019-01-12T19:22:04.451Z,947.3
2019-01-12T19:25:10.482Z,947.3
2019-01-12T19:28:16.548Z,947.3
2019-01-12T19:31:22.424Z,947.3
2019-01-12T19:34:28.362Z,947.3
2019-01-12T19:37:34.325Z,947.3
2019-01-12T19:40:40.381Z,947.2
2019-01-12T19:43:46.262Z,947.3
2019-01-12T19:46:52.191Z,947.3
2019-01-12T19:50:01.021Z,947.3
2019-01-12T19:53:07.078Z,947.3
2019-01-12T19:56:13.051Z,947.3
2019-01-12T19:59:19.007Z,947.3
2019-01-12T20:02:27.394Z,947.3
2019-01-12T20:05:33.384Z,947.2
2019-01-12T20:08:39.354Z,947.2
2019-01-12T20:11:45.224Z,947.2
2019-01-12T20:14:51.254Z,947.2
2019-01-12T20:17:57.145Z,947.2
2019-01-12T20:21:03.071Z,947.2
2019-01-12T20:24:08.955Z,947.1
2019-01-12T20:27:14.889Z,947.1
2019-01-12T20:30:20.858Z,947
2019-01-12T20:33:26.760Z,947
2019-01-12T20:36:32.772Z,946.9
2019-01-12T20:39:38.728Z,946.9
2019-01-12T20:42:44.714Z,946.9
2019-01-12T20:45:50.651Z,946.8
2019-01-12T20:48:56.713Z,946.8
2019-01-12T20:52:02.669Z,946.7
2019-01-12T20:55:08.541Z,946.7
2019-01-12T20:58:14.482Z,946.7
2019-01-12T21:01:20.446Z,946.6
2019-01-12T21:04:29.446Z,946.6
2019-01-12T21:07:35.340Z,946.6
2019-01-12T21:10:41.392Z,946.5
2019-01-12T21:13:48.845Z,946.5
2019-01-12T21:16:54.705Z,946.4
2019-01-12T21:20:00.856Z,946.4
2019-01-12T21:23:06.867Z,946.4
2019-01-12T21:26:12.760Z,946.4
2019-01-12T21:29:18.687Z,946.4
2019-01-12T21:32:24.558Z,946.4
2019-01-12T21:35:30.606Z,946.5
2019-01-12T21:38:36.478Z,946.5
2019-01-12T21:41:42.421Z,946.5
2019-01-12T21:44:49.916Z,946.5
2019-01-12T21:47:55.893Z,946.5
2019-01-12T21:51:01.747Z,946.5
2019-01-12T21:54:07.697Z,946.6
2019-01-12T21:57:13.578Z,946.5
2019-01-12T22:00:19.613Z,946.5
2019-01-12T22:03:25.495Z,946.5
2019-01-12T22:06:31.536Z,946.5
2019-01-12T22:09:37.402Z,946.5
2019-01-12T22:12:43.452Z,946.5
2019-01-12T22:15:49.340Z,946.5
2019-01-12T22:18:55.265Z,946.5
2019-01-12T22:22:01.378Z,946.5
2019-01-12T22:25:07.286Z,946.5
2019-01-12T22:28:13.245Z,946.4
2019-01-12T22:31:19.205Z,946.3
2019-01-12T22:34:25.169Z,946.3
2019-01-12T22:37:31.130Z,946.3
2019-01-12T22:40:37.007Z,946.2
2019-01-12T22:43:43.048Z,946.3
2019-01-12T22:46:51.742Z,946.2
2019-01-12T22:49:57.765Z,946.2
2019-01-12T22:53:03.719Z,946.2
2019-01-12T22:56:09.750Z,946
2019-01-12T22:59:15.670Z,946.1
2019-01-12T23:02:21.668Z,946.1
2019-01-12T23:05:27.730Z,946.1
2019-01-12T23:08:33.725Z,946
2019-01-12T23:11:39.753Z,946
2019-01-12T23:14:45.712Z,946
2019-01-12T23:17:51.672Z,946
2019-01-12T23:20:57.544Z,946
2019-01-12T23:24:03.548Z,946
2019-01-12T23:27:09.548Z,946
2019-01-12T23:30:15.643Z,946.1
2019-01-12T23:33:21.518Z,946.1
2019-01-12T23:36:27.430Z,946.1
2019-01-12T23:39:33.386Z,946.1
2019-01-12T23:42:39.455Z,946.1
2019-01-12T23:45:45.339Z,946
2019-01-12T23:48:51.274Z,945.9
2019-01-12T23:51:58.295Z,946
2019-01-12T23:55:04.328Z,945.9
2019-01-12T23:58:10.372Z,945.9
